createdAt,value
2022-11-30T00:01:35.494Z,6.45
2022-11-30T00:04:03.373Z,6.61
2022-11-30T00:06:31.431Z,6.62
2022-11-30T00:09:00.842Z,6.50
2022-11-30T00:11:29.806Z,6.31
2022-11-30T00:14:00.283Z,6.31
2022-11-30T00:16:28.379Z,6.26
2022-11-30T00:18:56.726Z,6.42
2022-11-30T00:21:26.140Z,6.46
2022-11-30T00:23:54.274Z,6.50
2022-11-30T00:26:23.456Z,6.40
2022-11-30T00:28:51.728Z,6.60
2022-11-30T00:31:21.041Z,6.36
2022-11-30T00:33:49.065Z,6.29
2022-11-30T00:36:19.004Z,6.61
2022-11-30T00:38:47.750Z,6.68
2022-11-30T00:41:16.318Z,6.47
2022-11-30T00:43:45.940Z,6.64
2022-11-30T00:46:13.883Z,6.58
2022-11-30T00:48:42.496Z,6.38
2022-11-30T00:51:12.168Z,6.76
2022-11-30T00:53:40.999Z,6.75
2022-11-30T00:56:09.968Z,6.53
2022-11-30T00:58:37.897Z,6.85
2022-11-30T01:01:07.842Z,6.91
2022-11-30T01:03:37.340Z,6.58
2022-11-30T01:06:05.575Z,6.87
2022-11-30T01:08:33.925Z,6.61
2022-11-30T01:11:07.734Z,6.91
2022-11-30T01:13:35.606Z,6.85
2022-11-30T01:16:09.429Z,6.71
2022-11-30T01:18:39.419Z,6.45
2022-11-30T01:21:08.681Z,6.53
2022-11-30T01:23:37.033Z,6.57
2022-11-30T01:26:05.276Z,6.61
2022-11-30T01:28:33.408Z,6.63
2022-11-30T01:31:03.647Z,6.64
2022-11-30T01:33:31.509Z,6.73
2022-11-30T01:36:02.558Z,6.80
2022-11-30T01:38:33.758Z,6.39
2022-11-30T01:41:01.746Z,6.63
2022-11-30T01:43:42.612Z,6.44
2022-11-30T01:46:25.542Z,6.48
2022-11-30T01:49:00.633Z,6.35
2022-11-30T01:51:37.016Z,6.48
2022-11-30T01:54:06.946Z,6.55
2022-11-30T01:56:35.055Z,6.40
2022-11-30T01:59:03.158Z,6.66
2022-11-30T02:01:31.492Z,6.80
2022-11-30T02:04:04.603Z,6.97
2022-11-30T02:06:34.243Z,6.94
2022-11-30T02:09:02.482Z,6.98
2022-11-30T02:11:30.559Z,7.09
2022-11-30T02:14:09.399Z,7.06
2022-11-30T02:16:47.661Z,6.99
2022-11-30T02:19:43.329Z,6.83
2022-11-30T02:22:24.930Z,7.06
2022-11-30T02:25:06.552Z,7.15
2022-11-30T02:27:50.782Z,7.08
2022-11-30T02:30:21.387Z,6.90
2022-11-30T02:32:55.400Z,6.93
2022-11-30T02:35:29.463Z,7.02
2022-11-30T02:37:59.896Z,7.00
2022-11-30T02:40:27.810Z,7.14
2022-11-30T02:42:58.585Z,6.91
2022-11-30T02:45:35.515Z,6.37
2022-11-30T02:48:10.384Z,6.50
2022-11-30T02:50:42.060Z,6.90
2022-11-30T02:53:11.373Z,6.95
2022-11-30T02:55:39.208Z,6.79
2022-11-30T02:58:07.269Z,7.00
2022-11-30T03:00:36.556Z,6.96
2022-11-30T03:03:04.492Z,6.72
2022-11-30T03:05:32.362Z,6.95
2022-11-30T03:08:00.216Z,7.05
2022-11-30T03:10:28.174Z,7.13
2022-11-30T03:12:58.867Z,7.14
2022-11-30T03:15:27.037Z,7.06
2022-11-30T03:17:56.203Z,7.08
2022-11-30T03:20:24.059Z,7.09
2022-11-30T03:22:51.851Z,6.31
2022-11-30T03:25:19.721Z,6.81
2022-11-30T03:27:47.526Z,6.88
2022-11-30T03:30:15.757Z,6.91
2022-11-30T03:32:43.952Z,7.09
2022-11-30T03:35:13.268Z,6.61
2022-11-30T03:37:41.135Z,7.07
2022-11-30T03:40:10.105Z,6.93
2022-11-30T03:42:38.232Z,7.06
2022-11-30T03:45:07.481Z,7.03
2022-11-30T03:47:35.273Z,7.02
2022-11-30T03:50:03.091Z,7.04
2022-11-30T03:52:32.278Z,7.03
2022-11-30T03:55:00.314Z,7.04
2022-11-30T03:57:28.178Z,7.10
2022-11-30T03:59:56.226Z,7.06
2022-11-30T04:02:24.131Z,7.21
2022-11-30T04:04:51.991Z,6.97
2022-11-30T04:07:19.929Z,6.82
2022-11-30T04:09:49.207Z,6.85
2022-11-30T04:12:17.045Z,6.76
2022-11-30T04:14:45.155Z,6.73
2022-11-30T04:17:13.400Z,6.32
2022-11-30T04:19:41.212Z,6.71
2022-11-30T04:22:09.037Z,6.72
2022-11-30T04:24:36.877Z,6.71
2022-11-30T04:27:06.184Z,6.33
2022-11-30T04:29:34.196Z,6.19
2022-11-30T04:32:02.169Z,6.36
2022-11-30T04:34:31.563Z,6.47
2022-11-30T04:37:00.537Z,6.64
2022-11-30T04:39:28.627Z,6.46
2022-11-30T04:41:56.628Z,6.61
2022-11-30T04:44:25.872Z,6.55
2022-11-30T04:46:53.845Z,6.13
2022-11-30T04:49:21.690Z,6.12
2022-11-30T04:51:49.563Z,6.17
2022-11-30T04:54:17.405Z,6.31
2022-11-30T04:56:45.299Z,6.12
2022-11-30T04:59:13.130Z,6.55
2022-11-30T05:01:42.495Z,6.42
2022-11-30T05:04:10.346Z,6.47
2022-11-30T05:06:38.212Z,6.49
2022-11-30T05:09:06.404Z,6.50
2022-11-30T05:11:34.362Z,6.41
2022-11-30T05:14:02.371Z,6.44
2022-11-30T05:16:30.702Z,6.31
2022-11-30T05:18:59.940Z,6.25
2022-11-30T05:21:27.821Z,6.49
2022-11-30T05:23:55.668Z,6.13
2022-11-30T05:26:23.774Z,6.09
2022-11-30T05:28:51.821Z,5.91
2022-11-30T05:31:19.745Z,6.21
2022-11-30T05:33:51.583Z,6.29
2022-11-30T05:36:21.377Z,6.23
2022-11-30T05:38:49.374Z,6.42
2022-11-30T05:41:17.319Z,6.23
2022-11-30T05:43:45.370Z,6.46
2022-11-30T05:46:13.188Z,6.20
2022-11-30T05:48:41.013Z,6.26
2022-11-30T05:51:10.823Z,6.28
2022-11-30T05:53:40.488Z,6.19
2022-11-30T05:56:10.600Z,6.23
2022-11-30T05:58:38.685Z,6.28
2022-11-30T06:01:07.180Z,6.12
2022-11-30T06:03:36.831Z,6.18
2022-11-30T06:06:04.667Z,6.13
2022-11-30T06:08:32.687Z,6.04
2022-11-30T06:11:03.075Z,6.30
2022-11-30T06:13:32.517Z,6.32
2022-11-30T06:16:01.035Z,6.10
2022-11-30T06:18:29.448Z,6.09
2022-11-30T06:21:01.659Z,6.08
2022-11-30T06:23:29.663Z,6.20
2022-11-30T06:25:57.546Z,6.08
2022-11-30T06:28:27.113Z,5.94
2022-11-30T06:30:59.583Z,6.17
2022-11-30T06:33:27.797Z,6.09
2022-11-30T06:35:55.605Z,6.03
2022-11-30T06:38:24.289Z,6.22
2022-11-30T06:40:52.087Z,5.90
2022-11-30T06:43:20.042Z,6.17
2022-11-30T06:45:49.349Z,5.99
2022-11-30T06:48:17.199Z,6.19
2022-11-30T06:50:49.952Z,5.95
2022-11-30T06:53:18.103Z,6.35
2022-11-30T06:55:45.985Z,6.29
2022-11-30T06:58:13.818Z,6.00
2022-11-30T07:00:42.823Z,6.23
2022-11-30T07:03:12.919Z,5.91
2022-11-30T07:05:44.196Z,6.11
2022-11-30T07:08:12.217Z,5.94
2022-11-30T07:10:41.690Z,6.24
2022-11-30T07:13:12.125Z,6.23
2022-11-30T07:15:39.841Z,6.18
2022-11-30T07:18:08.138Z,6.21
2022-11-30T07:20:37.891Z,6.22
2022-11-30T07:23:19.850Z,6.21
2022-11-30T07:26:05.451Z,6.24
2022-11-30T07:28:33.607Z,6.32
2022-11-30T07:31:01.535Z,6.17
2022-11-30T07:33:29.875Z,5.90
2022-11-30T07:35:59.432Z,5.80
2022-11-30T07:38:27.458Z,6.00
2022-11-30T07:40:55.295Z,5.99
2022-11-30T07:43:23.208Z,5.88
2022-11-30T07:45:54.747Z,5.94
2022-11-30T07:48:23.402Z,5.52
2022-11-30T07:51:04.935Z,5.72
2022-11-30T07:54:01.358Z,5.66
2022-11-30T07:56:29.649Z,5.59
2022-11-30T07:58:59.551Z,5.60
2022-11-30T08:01:29.345Z,5.68
2022-11-30T08:03:58.302Z,6.14
2022-11-30T08:06:27.885Z,5.95
2022-11-30T08:08:58.941Z,5.66
2022-11-30T08:11:31.120Z,5.63
2022-11-30T08:13:58.947Z,5.71
2022-11-30T08:16:28.581Z,5.64
2022-11-30T08:18:57.326Z,5.87
2022-11-30T08:21:25.614Z,6.09
2022-11-30T08:23:56.075Z,5.73
2022-11-30T08:26:25.997Z,5.99
2022-11-30T08:28:56.172Z,6.09
2022-11-30T08:31:26.009Z,5.83
2022-11-30T08:33:57.600Z,5.60
2022-11-30T08:36:26.727Z,5.58
2022-11-30T08:38:55.049Z,5.62
2022-11-30T08:41:23.646Z,5.64
2022-11-30T08:43:53.141Z,5.64
2022-11-30T08:49:21.426Z,5.95
2022-11-30T08:54:42.420Z,5.86
2022-11-30T08:57:10.428Z,5.63
2022-11-30T08:59:38.426Z,5.63
2022-11-30T09:02:07.773Z,5.81
2022-11-30T09:04:35.773Z,5.62
2022-11-30T09:07:04.279Z,5.58
2022-11-30T09:09:32.653Z,5.45
2022-11-30T09:12:00.565Z,5.63
2022-11-30T09:14:29.589Z,5.74
2022-11-30T09:16:57.427Z,5.72
2022-11-30T09:19:27.262Z,5.86
2022-11-30T09:21:55.155Z,5.74
2022-11-30T09:24:23.014Z,5.83
2022-11-30T09:26:51.236Z,5.74
2022-11-30T09:29:19.127Z,5.96
2022-11-30T09:31:46.930Z,6.04
2022-11-30T09:34:14.816Z,6.23
2022-11-30T09:36:44.150Z,6.23
2022-11-30T09:39:12.895Z,6.39
2022-11-30T09:42:06.008Z,6.51
2022-11-30T09:44:45.933Z,6.93
2022-11-30T09:47:33.586Z,6.79
2022-11-30T09:50:04.822Z,6.63
2022-11-30T09:52:38.482Z,6.86
2022-11-30T09:55:10.787Z,6.67
2022-11-30T09:57:47.011Z,6.41
2022-11-30T10:00:17.807Z,6.32
2022-11-30T10:02:46.843Z,6.54
2022-11-30T10:05:16.625Z,6.66
2022-11-30T10:08:06.044Z,6.91
2022-11-30T10:10:40.281Z,6.79
2022-11-30T10:13:27.869Z,6.73
2022-11-30T10:16:08.521Z,6.45
2022-11-30T10:18:48.047Z,6.71
2022-11-30T10:21:27.933Z,6.77
2022-11-30T10:24:11.788Z,6.62
2022-11-30T10:26:43.458Z,6.94
2022-11-30T10:29:19.197Z,6.96
2022-11-30T10:31:49.685Z,6.86
2022-11-30T10:34:20.305Z,6.51
2022-11-30T10:36:54.367Z,6.84
2022-11-30T10:39:29.636Z,6.93
2022-11-30T10:42:05.218Z,6.89
2022-11-30T10:44:39.538Z,6.41
2022-11-30T10:47:14.807Z,6.55
2022-11-30T10:49:49.356Z,6.88
2022-11-30T10:52:24.049Z,6.50
2022-11-30T10:55:02.257Z,6.18
2022-11-30T10:57:34.152Z,6.01
2022-11-30T11:00:06.464Z,6.18
2022-11-30T11:02:41.449Z,6.41
2022-11-30T11:05:21.712Z,6.47
2022-11-30T11:07:52.766Z,6.27
2022-11-30T11:10:28.603Z,6.65
2022-11-30T11:12:57.140Z,6.31
2022-11-30T11:15:26.822Z,6.47
2022-11-30T11:18:12.750Z,6.65
2022-11-30T11:20:42.636Z,6.46
2022-11-30T11:23:22.764Z,6.63
2022-11-30T11:25:54.151Z,6.63
2022-11-30T11:28:24.487Z,6.61
2022-11-30T11:30:55.348Z,6.54
2022-11-30T11:33:25.343Z,6.68
2022-11-30T11:35:54.544Z,6.83
2022-11-30T11:38:28.529Z,6.42
2022-11-30T11:41:00.849Z,6.30
2022-11-30T11:43:30.649Z,6.43
2022-11-30T11:46:01.919Z,6.05
2022-11-30T11:48:34.779Z,6.46
2022-11-30T11:51:07.060Z,6.19
2022-11-30T11:53:51.541Z,6.17
2022-11-30T11:56:27.054Z,6.25
2022-11-30T11:58:59.861Z,6.16
2022-11-30T12:01:50.368Z,6.36
2022-11-30T12:04:37.388Z,6.06
2022-11-30T12:07:18.051Z,6.08
2022-11-30T12:09:59.263Z,6.25
2022-11-30T12:12:33.687Z,6.36
2022-11-30T12:15:12.100Z,6.27
2022-11-30T12:17:52.032Z,6.25
2022-11-30T12:20:26.910Z,6.38
2022-11-30T12:23:12.655Z,6.54
2022-11-30T12:25:48.803Z,6.39
2022-11-30T12:28:25.407Z,6.36
2022-11-30T12:31:12.060Z,6.63
2022-11-30T12:34:00.192Z,6.55
2022-11-30T12:36:38.127Z,6.36
2022-11-30T12:39:10.119Z,6.12
2022-11-30T12:41:50.623Z,6.21
2022-11-30T12:44:28.759Z,5.97
2022-11-30T12:47:04.401Z,6.16
2022-11-30T12:49:44.852Z,6.44
2022-11-30T12:52:29.823Z,6.56
2022-11-30T12:55:05.031Z,6.51
2022-11-30T12:57:39.497Z,6.60
2022-11-30T13:00:17.149Z,6.59
2022-11-30T13:03:03.796Z,6.60
2022-11-30T13:05:36.553Z,6.20
2022-11-30T13:08:11.927Z,6.63
2022-11-30T13:10:44.178Z,6.43
2022-11-30T13:13:15.526Z,6.59
2022-11-30T13:15:46.393Z,6.36
2022-11-30T13:18:19.225Z,6.13
2022-11-30T13:20:52.922Z,6.20
2022-11-30T13:23:31.509Z,6.07
2022-11-30T13:26:08.420Z,6.36
2022-11-30T13:28:56.626Z,6.19
2022-11-30T13:31:36.207Z,6.03
2022-11-30T13:34:24.529Z,5.89
2022-11-30T13:37:07.804Z,6.05
2022-11-30T13:39:49.772Z,5.69
2022-11-30T13:42:34.946Z,5.69
2022-11-30T13:45:39.541Z,5.59
2022-11-30T13:48:32.883Z,5.84
2022-11-30T13:51:06.923Z,5.37
2022-11-30T13:53:40.541Z,5.64
2022-11-30T13:56:33.633Z,5.76
2022-11-30T13:59:45.550Z,5.69
2022-11-30T14:02:59.095Z,5.88
2022-11-30T14:05:44.205Z,5.71
2022-11-30T14:08:32.636Z,5.56
2022-11-30T14:11:38.275Z,6.00
2022-11-30T14:14:47.039Z,5.74
2022-11-30T14:17:26.922Z,5.76
2022-11-30T14:20:03.487Z,5.69
2022-11-30T14:22:41.688Z,5.41
2022-11-30T14:25:17.929Z,5.46
2022-11-30T14:27:56.567Z,5.62
2022-11-30T14:30:33.630Z,5.56
2022-11-30T14:33:19.378Z,5.68
2022-11-30T14:35:57.981Z,5.54
2022-11-30T14:38:32.762Z,5.57
2022-11-30T14:41:05.633Z,5.49
2022-11-30T14:43:38.542Z,5.46
2022-11-30T14:46:18.850Z,5.50
2022-11-30T14:49:05.258Z,5.55
2022-11-30T14:51:38.815Z,5.44
2022-11-30T14:54:23.616Z,5.66
2022-11-30T14:57:03.983Z,5.37
2022-11-30T14:59:47.380Z,5.51
2022-11-30T15:02:24.886Z,5.21
2022-11-30T15:04:59.735Z,5.10
2022-11-30T15:07:32.774Z,5.53
2022-11-30T15:10:12.361Z,5.51
2022-11-30T15:12:45.956Z,5.42
2022-11-30T15:15:21.257Z,5.11
2022-11-30T15:17:56.206Z,5.20
2022-11-30T15:20:32.455Z,5.64
2022-11-30T15:23:05.350Z,5.65
2022-11-30T15:25:42.976Z,5.70
2022-11-30T15:28:19.898Z,5.51
2022-11-30T15:30:58.558Z,5.42
2022-11-30T15:33:38.096Z,5.52
2022-11-30T15:36:31.356Z,5.34
2022-11-30T15:39:06.653Z,5.13
2022-11-30T15:41:40.872Z,5.46
2022-11-30T15:44:26.242Z,5.54
2022-11-30T15:47:01.414Z,5.70
2022-11-30T15:49:36.273Z,5.01
2022-11-30T15:52:18.194Z,4.90
2022-11-30T15:54:54.008Z,4.81
2022-11-30T15:57:59.355Z,4.70
2022-11-30T16:00:33.281Z,4.89
2022-11-30T16:03:10.618Z,4.80
2022-11-30T16:05:57.105Z,4.88
2022-11-30T16:08:30.378Z,4.97
2022-11-30T16:11:08.020Z,4.74
2022-11-30T16:13:42.777Z,4.71
2022-11-30T16:16:23.988Z,4.88
2022-11-30T16:18:56.911Z,4.76
2022-11-30T16:21:29.850Z,5.02
2022-11-30T16:24:02.688Z,4.79
2022-11-30T16:26:50.623Z,4.59
2022-11-30T16:29:25.809Z,4.56
2022-11-30T16:31:58.790Z,4.67
2022-11-30T16:34:31.669Z,4.52
2022-11-30T16:37:04.691Z,4.66
2022-11-30T16:39:37.951Z,4.89
2022-11-30T16:42:12.490Z,4.78
2022-11-30T16:44:46.729Z,5.08
2022-11-30T16:47:19.793Z,4.98
2022-11-30T16:49:52.630Z,4.86
2022-11-30T16:52:25.447Z,4.81
2022-11-30T16:54:58.232Z,4.71
2022-11-30T16:57:31.052Z,4.82
2022-11-30T17:00:06.151Z,4.65
2022-11-30T17:02:43.042Z,4.59
2022-11-30T17:05:16.508Z,4.60
2022-11-30T17:07:49.456Z,4.46
2022-11-30T17:10:23.052Z,4.46
2022-11-30T17:12:55.912Z,4.61
2022-11-30T17:15:30.243Z,4.38
2022-11-30T17:18:03.119Z,4.49
2022-11-30T17:20:37.470Z,4.65
2022-11-30T17:23:10.355Z,4.39
2022-11-30T17:25:43.204Z,4.59
2022-11-30T17:28:16.088Z,4.65
2022-11-30T17:30:50.338Z,4.46
2022-11-30T17:33:23.235Z,4.57
2022-11-30T17:35:58.618Z,4.45
2022-11-30T17:38:31.449Z,4.47
2022-11-30T17:41:05.266Z,4.30
2022-11-30T17:43:38.222Z,4.20
2022-11-30T17:46:15.617Z,4.39
2022-11-30T17:48:49.348Z,4.25
2022-11-30T17:51:22.269Z,4.20
2022-11-30T17:53:55.196Z,4.05
2022-11-30T17:56:28.113Z,4.12
2022-11-30T17:59:01.023Z,4.14
2022-11-30T18:01:35.603Z,4.29
2022-11-30T18:04:09.204Z,4.19
2022-11-30T18:06:42.016Z,4.21
2022-11-30T18:09:14.832Z,4.15
2022-11-30T18:11:48.000Z,4.18
2022-11-30T18:14:24.005Z,4.21
2022-11-30T18:17:06.908Z,4.23
2022-11-30T18:19:39.829Z,4.35
2022-11-30T18:22:12.668Z,4.12
2022-11-30T18:24:45.889Z,4.20
2022-11-30T18:27:18.904Z,4.22
2022-11-30T18:29:52.231Z,4.32
2022-11-30T18:32:26.408Z,4.26
2022-11-30T18:34:59.418Z,4.13
2022-11-30T18:37:34.472Z,4.13
2022-11-30T18:40:08.619Z,4.08
2022-11-30T18:42:41.457Z,4.18
2022-11-30T18:45:14.256Z,4.11
2022-11-30T18:47:48.563Z,4.10
2022-11-30T18:50:21.418Z,4.17
2022-11-30T18:52:54.774Z,4.18
2022-11-30T18:55:27.800Z,4.23
2022-11-30T18:58:01.710Z,4.06
2022-11-30T19:00:34.539Z,4.17
2022-11-30T19:03:08.798Z,4.06
2022-11-30T19:05:41.685Z,4.26
2022-11-30T19:08:15.542Z,4.18
2022-11-30T19:10:48.546Z,4.19
2022-11-30T19:13:21.440Z,4.27
2022-11-30T19:15:54.284Z,4.18
2022-11-30T19:18:28.583Z,4.03
2022-11-30T19:21:01.402Z,4.21
2022-11-30T19:23:34.252Z,4.34
2022-11-30T19:26:08.519Z,4.08
2022-11-30T19:28:43.668Z,4.46
2022-11-30T19:31:18.476Z,4.16
2022-11-30T19:33:55.385Z,4.49
2022-11-30T19:36:29.658Z,4.29
2022-11-30T19:39:02.618Z,4.10
2022-11-30T19:41:35.528Z,4.11
2022-11-30T19:44:10.481Z,4.18
2022-11-30T19:46:43.437Z,4.09
2022-11-30T19:49:17.844Z,4.13
2022-11-30T19:51:50.787Z,4.13
2022-11-30T19:54:23.729Z,4.23
2022-11-30T19:56:58.094Z,4.19
2022-11-30T19:59:30.966Z,3.89
2022-11-30T20:02:03.967Z,3.92
2022-11-30T20:04:38.435Z,4.13
2022-11-30T20:07:11.283Z,4.04
2022-11-30T20:09:44.256Z,3.79
2022-11-30T20:12:17.288Z,3.95
2022-11-30T20:14:51.037Z,4.24
2022-11-30T20:17:24.007Z,3.92
2022-11-30T20:19:58.308Z,4.06
2022-11-30T20:22:31.424Z,4.03
2022-11-30T20:25:04.502Z,4.08
2022-11-30T20:27:37.444Z,4.27
2022-11-30T20:30:11.017Z,3.85
2022-11-30T20:32:43.966Z,3.92
2022-11-30T20:35:18.319Z,3.98
2022-11-30T20:37:51.183Z,4.12
2022-11-30T20:40:24.060Z,4.59
2022-11-30T20:42:56.947Z,4.27
2022-11-30T20:45:32.348Z,4.31
2022-11-30T20:48:05.283Z,4.35
2022-11-30T20:50:39.818Z,4.49
2022-11-30T20:53:12.714Z,3.93
2022-11-30T20:55:45.818Z,4.03
2022-11-30T20:58:18.767Z,4.35
2022-11-30T21:00:51.651Z,4.27
2022-11-30T21:03:24.553Z,4.00
2022-11-30T21:05:58.717Z,4.12
2022-11-30T21:08:32.024Z,4.39
2022-11-30T21:11:06.314Z,4.42
2022-11-30T21:13:40.078Z,4.49
2022-11-30T21:16:13.514Z,4.12
2022-11-30T21:18:47.345Z,3.95
2022-11-30T21:21:24.095Z,3.74
2022-11-30T21:23:59.947Z,4.06
2022-11-30T21:26:34.942Z,4.02
2022-11-30T21:29:11.198Z,3.72
2022-11-30T21:31:44.900Z,3.75
2022-11-30T21:34:18.388Z,4.13
2022-11-30T21:36:53.434Z,3.70
2022-11-30T21:39:26.557Z,3.67
2022-11-30T21:41:59.497Z,3.69
2022-11-30T21:44:32.340Z,3.62
2022-11-30T21:47:05.287Z,3.54
2022-11-30T21:49:38.085Z,3.72
2022-11-30T21:52:12.716Z,3.95
2022-11-30T21:54:45.633Z,3.65
2022-11-30T21:57:18.595Z,3.54
2022-11-30T21:59:51.481Z,3.44
2022-11-30T22:02:24.453Z,3.50
2022-11-30T22:04:57.327Z,3.63
2022-11-30T22:07:39.147Z,4.14
2022-11-30T22:10:32.844Z,4.15
2022-11-30T22:13:05.699Z,3.90
2022-11-30T22:15:38.805Z,3.59
2022-11-30T22:18:11.716Z,3.98
2022-11-30T22:20:44.614Z,3.84
2022-11-30T22:23:18.988Z,3.49
2022-11-30T22:25:52.679Z,3.99
2022-11-30T22:28:25.699Z,3.46
2022-11-30T22:31:03.551Z,3.83
2022-11-30T22:33:38.082Z,4.06
2022-11-30T22:36:14.917Z,3.71
2022-11-30T22:38:54.462Z,3.93
2022-11-30T22:41:28.718Z,3.93
2022-11-30T22:44:02.618Z,3.54
2022-11-30T22:46:37.802Z,3.83
2022-11-30T22:49:19.954Z,3.52
2022-11-30T22:51:53.874Z,3.57
2022-11-30T22:54:28.312Z,3.73
2022-11-30T22:57:01.173Z,3.61
2022-11-30T22:59:34.023Z,3.35
2022-11-30T23:02:07.923Z,3.39
2022-11-30T23:04:43.721Z,3.41
2022-11-30T23:07:16.590Z,3.36
2022-11-30T23:09:51.074Z,3.16
2022-11-30T23:12:50.955Z,3.29
2022-11-30T23:15:17.095Z,3.15
2022-11-30T23:17:49.974Z,3.36
2022-11-30T23:20:22.992Z,3.22
2022-11-30T23:22:55.855Z,3.41
2022-11-30T23:25:30.416Z,3.39
2022-11-30T23:28:03.317Z,3.37
2022-11-30T23:30:36.177Z,3.30
2022-11-30T23:33:10.302Z,3.16
2022-11-30T23:35:44.493Z,3.40
2022-11-30T23:38:17.346Z,3.49
2022-11-30T23:40:51.637Z,3.39
2022-11-30T23:43:24.676Z,3.06
2022-11-30T23:45:57.538Z,3.29
2022-11-30T23:48:30.351Z,3.53
2022-11-30T23:51:03.357Z,3.21
2022-11-30T23:53:36.216Z,3.28
2022-11-30T23:56:14.166Z,3.44
2022-11-30T23:58:47.520Z,3.33
